sensor_id;sensor_type;location;lat;lon;timestamp;temperature;humidity
8332;DHT22;4203;48.144;14.118;2022-07-29T00:01:48;17.60;99.90
8332;DHT22;4203;48.144;14.118;2022-07-29T00:04:18;17.60;99.90
8332;DHT22;4203;48.144;14.118;2022-07-29T00:06:47;17.60;99.90
8332;DHT22;4203;48.144;14.118;2022-07-29T00:09:14;17.50;99.90
8332;DHT22;4203;48.144;14.118;2022-07-29T00:11:41;17.50;99.90
8332;DHT22;4203;48.144;14.118;2022-07-29T00:14:09;17.40;99.90
8332;DHT22;4203;48.144;14.118;2022-07-29T00:16:36;17.40;99.90
8332;DHT22;4203;48.144;14.118;2022-07-29T00:19:04;17.30;99.90
8332;DHT22;4203;48.144;14.118;2022-07-29T00:21:32;17.30;99.90
8332;DHT22;4203;48.144;14.118;2022-07-29T00:24:00;17.30;99.90
8332;DHT22;4203;48.144;14.118;2022-07-29T00:26:28;17.20;99.90
8332;DHT22;4203;48.144;14.118;2022-07-29T00:28:58;17.20;99.90
8332;DHT22;4203;48.144;14.118;2022-07-29T00:31:25;17.10;99.90
8332;DHT22;4203;48.144;14.118;2022-07-29T00:33:52;17.10;99.90
8332;DHT22;4203;48.144;14.118;2022-07-29T00:36:19;17.00;99.90
8332;DHT22;4203;48.144;14.118;2022-07-29T00:38:46;17.00;99.90
8332;DHT22;4203;48.144;14.118;2022-07-29T00:41:15;17.00;99.90
8332;DHT22;4203;48.144;14.118;2022-07-29T00:43:43;17.00;99.90
8332;DHT22;4203;48.144;14.118;2022-07-29T00:46:11;16.90;99.90
8332;DHT22;4203;48.144;14.118;2022-07-29T00:48:38;16.90;99.90
8332;DHT22;4203;48.144;14.118;2022-07-29T00:51:06;17.00;99.90
8332;DHT22;4203;48.144;14.118;2022-07-29T00:53:36;17.00;99.90
8332;DHT22;4203;48.144;14.118;2022-07-29T00:56:04;16.90;99.90
8332;DHT22;4203;48.144;14.118;2022-07-29T00:58:32;16.80;99.90
8332;DHT22;4203;48.144;14.118;2022-07-29T01:01:00;16.80;99.90
8332;DHT22;4203;48.144;14.118;2022-07-29T01:03:27;16.80;99.90
8332;DHT22;4203;48.144;14.118;2022-07-29T01:05:54;16.80;99.90
8332;DHT22;4203;48.144;14.118;2022-07-29T01:08:23;16.80;99.90
8332;DHT22;4203;48.144;14.118;2022-07-29T01:10:51;16.80;99.90
8332;DHT22;4203;48.144;14.118;2022-07-29T01:13:20;16.80;99.90
8332;DHT22;4203;48.144;14.118;2022-07-29T01:15:58;16.80;99.90
8332;DHT22;4203;48.144;14.118;2022-07-29T01:18:31;16.80;99.90
8332;DHT22;4203;48.144;14.118;2022-07-29T01:21:24;16.80;99.90
8332;DHT22;4203;48.144;14.118;2022-07-29T01:24:14;16.80;99.90
8332;DHT22;4203;48.144;14.118;2022-07-29T01:26:47;16.90;99.90
8332;DHT22;4203;48.144;14.118;2022-07-29T01:29:24;16.90;99.90
8332;DHT22;4203;48.144;14.118;2022-07-29T01:31:57;16.90;99.90
8332;DHT22;4203;48.144;14.118;2022-07-29T01:34:34;16.90;99.90
8332;DHT22;4203;48.144;14.118;2022-07-29T01:37:08;16.90;99.90
8332;DHT22;4203;48.144;14.118;2022-07-29T01:39:39;16.90;99.90
8332;DHT22;4203;48.144;14.118;2022-07-29T01:42:14;16.90;99.90
8332;DHT22;4203;48.144;14.118;2022-07-29T01:44:52;17.00;99.90
8332;DHT22;4203;48.144;14.118;2022-07-29T01:47:23;16.90;99.90
8332;DHT22;4203;48.144;14.118;2022-07-29T01:49:54;17.00;99.90
8332;DHT22;4203;48.144;14.118;2022-07-29T01:52:37;17.00;99.90
8332;DHT22;4203;48.144;14.118;2022-07-29T01:55:11;17.00;99.90
8332;DHT22;4203;48.144;14.118;2022-07-29T01:57:43;17.10;99.90
8332;DHT22;4203;48.144;14.118;2022-07-29T02:00:14;17.20;99.90
8332;DHT22;4203;48.144;14.118;2022-07-29T02:02:44;17.20;99.90
8332;DHT22;4203;48.144;14.118;2022-07-29T02:05:14;17.20;99.90
8332;DHT22;4203;48.144;14.118;2022-07-29T02:07:43;17.20;99.90
8332;DHT22;4203;48.144;14.118;2022-07-29T02:10:12;17.20;99.90
8332;DHT22;4203;48.144;14.118;2022-07-29T02:12:40;17.20;99.90
8332;DHT22;4203;48.144;14.118;2022-07-29T02:15:09;17.30;99.90
8332;DHT22;4203;48.144;14.118;2022-07-29T02:17:43;17.20;99.90
8332;DHT22;4203;48.144;14.118;2022-07-29T02:20:11;17.30;99.90
8332;DHT22;4203;48.144;14.118;2022-07-29T02:22:40;17.30;99.90
8332;DHT22;4203;48.144;14.118;2022-07-29T02:25:09;17.30;99.90
8332;DHT22;4203;48.144;14.118;2022-07-29T02:27:37;17.20;99.90
8332;DHT22;4203;48.144;14.118;2022-07-29T02:30:07;17.10;99.90
8332;DHT22;4203;48.144;14.118;2022-07-29T02:32:37;17.10;99.90
8332;DHT22;4203;48.144;14.118;2022-07-29T02:35:08;17.10;99.90
8332;DHT22;4203;48.144;14.118;2022-07-29T02:37:37;17.20;99.90
8332;DHT22;4203;48.144;14.118;2022-07-29T02:40:08;17.20;99.90
8332;DHT22;4203;48.144;14.118;2022-07-29T02:42:37;17.30;99.90
8332;DHT22;4203;48.144;14.118;2022-07-29T02:45:07;17.30;99.90
8332;DHT22;4203;48.144;14.118;2022-07-29T02:47:37;17.20;99.90
8332;DHT22;4203;48.144;14.118;2022-07-29T02:50:11;17.20;99.90
8332;DHT22;4203;48.144;14.118;2022-07-29T02:52:43;17.20;99.90
8332;DHT22;4203;48.144;14.118;2022-07-29T02:55:15;17.20;99.90
8332;DHT22;4203;48.144;14.118;2022-07-29T02:57:46;17.20;99.90
8332;DHT22;4203;48.144;14.118;2022-07-29T03:00:15;17.30;99.90
8332;DHT22;4203;48.144;14.118;2022-07-29T03:02:45;17.30;99.90
8332;DHT22;4203;48.144;14.118;2022-07-29T03:05:20;17.30;99.90
8332;DHT22;4203;48.144;14.118;2022-07-29T03:07:58;17.30;99.90
8332;DHT22;4203;48.144;14.118;2022-07-29T03:10:26;17.40;99.90
8332;DHT22;4203;48.144;14.118;2022-07-29T03:12:55;17.40;99.90
8332;DHT22;4203;48.144;14.118;2022-07-29T03:15:23;17.40;99.90
8332;DHT22;4203;48.144;14.118;2022-07-29T03:17:51;17.40;99.90
8332;DHT22;4203;48.144;14.118;2022-07-29T03:20:24;17.40;99.90
8332;DHT22;4203;48.144;14.118;2022-07-29T03:22:51;17.40;99.90
8332;DHT22;4203;48.144;14.118;2022-07-29T03:25:19;17.40;99.90
8332;DHT22;4203;48.144;14.118;2022-07-29T03:27:48;17.40;99.90
8332;DHT22;4203;48.144;14.118;2022-07-29T03:30:15;17.40;99.90
8332;DHT22;4203;48.144;14.118;2022-07-29T03:32:42;17.40;99.90
8332;DHT22;4203;48.144;14.118;2022-07-29T03:35:10;17.40;99.90
8332;DHT22;4203;48.144;14.118;2022-07-29T03:37:39;17.30;99.90
8332;DHT22;4203;48.144;14.118;2022-07-29T03:40:08;17.30;99.90
8332;DHT22;4203;48.144;14.118;2022-07-29T03:42:38;17.30;99.90
8332;DHT22;4203;48.144;14.118;2022-07-29T03:45:11;17.30;99.90
8332;DHT22;4203;48.144;14.118;2022-07-29T03:47:42;17.20;99.90
8332;DHT22;4203;48.144;14.118;2022-07-29T03:50:12;17.20;99.90
8332;DHT22;4203;48.144;14.118;2022-07-29T03:52:43;17.20;99.90
8332;DHT22;4203;48.144;14.118;2022-07-29T03:55:10;17.10;99.90
8332;DHT22;4203;48.144;14.118;2022-07-29T03:57:38;17.10;99.90
8332;DHT22;4203;48.144;14.118;2022-07-29T04:00:07;17.10;99.90
8332;DHT22;4203;48.144;14.118;2022-07-29T04:02:36;17.20;99.90
8332;DHT22;4203;48.144;14.118;2022-07-29T04:05:03;17.20;99.90
8332;DHT22;4203;48.144;14.118;2022-07-29T04:07:31;17.30;99.90
8332;DHT22;4203;48.144;14.118;2022-07-29T04:09:59;17.30;99.90
8332;DHT22;4203;48.144;14.118;2022-07-29T04:12:27;17.40;99.90
8332;DHT22;4203;48.144;14.118;2022-07-29T04:14:54;17.40;99.90
8332;DHT22;4203;48.144;14.118;2022-07-29T04:17:21;17.40;99.90
8332;DHT22;4203;48.144;14.118;2022-07-29T04:19:48;17.50;99.90
8332;DHT22;4203;48.144;14.118;2022-07-29T04:22:15;17.50;99.90
8332;DHT22;4203;48.144;14.118;2022-07-29T04:24:43;17.50;99.90
8332;DHT22;4203;48.144;14.118;2022-07-29T04:27:12;17.60;99.90
8332;DHT22;4203;48.144;14.118;2022-07-29T04:29:39;17.60;99.90
8332;DHT22;4203;48.144;14.118;2022-07-29T04:32:06;17.70;99.90
8332;DHT22;4203;48.144;14.118;2022-07-29T04:34:33;17.80;99.90
8332;DHT22;4203;48.144;14.118;2022-07-29T04:37:01;17.80;99.90
8332;DHT22;4203;48.144;14.118;2022-07-29T04:39:28;17.90;99.90
8332;DHT22;4203;48.144;14.118;2022-07-29T04:41:55;17.90;99.90
8332;DHT22;4203;48.144;14.118;2022-07-29T04:44:24;18.00;99.90
8332;DHT22;4203;48.144;14.118;2022-07-29T04:46:51;18.00;99.90
8332;DHT22;4203;48.144;14.118;2022-07-29T04:49:18;18.00;99.90
8332;DHT22;4203;48.144;14.118;2022-07-29T04:51:45;17.90;99.90
8332;DHT22;4203;48.144;14.118;2022-07-29T04:54:13;17.90;99.90
8332;DHT22;4203;48.144;14.118;2022-07-29T04:56:40;17.90;99.90
8332;DHT22;4203;48.144;14.118;2022-07-29T04:59:07;17.90;99.90
8332;DHT22;4203;48.144;14.118;2022-07-29T05:01:36;17.90;99.90
8332;DHT22;4203;48.144;14.118;2022-07-29T05:04:03;17.90;99.90
8332;DHT22;4203;48.144;14.118;2022-07-29T05:06:30;17.90;99.90
8332;DHT22;4203;48.144;14.118;2022-07-29T05:08:57;17.80;99.90
8332;DHT22;4203;48.144;14.118;2022-07-29T05:11:25;17.80;99.90
8332;DHT22;4203;48.144;14.118;2022-07-29T05:13:52;17.80;99.90
8332;DHT22;4203;48.144;14.118;2022-07-29T05:16:19;17.90;99.90
8332;DHT22;4203;48.144;14.118;2022-07-29T05:18:48;18.00;99.90
8332;DHT22;4203;48.144;14.118;2022-07-29T05:21:15;18.10;99.90
8332;DHT22;4203;48.144;14.118;2022-07-29T05:23:42;18.10;99.90
8332;DHT22;4203;48.144;14.118;2022-07-29T05:26:09;18.20;99.90
8332;DHT22;4203;48.144;14.118;2022-07-29T05:28:37;18.20;99.90
8332;DHT22;4203;48.144;14.118;2022-07-29T05:31:04;18.40;99.90
8332;DHT22;4203;48.144;14.118;2022-07-29T05:33:32;18.40;99.90
8332;DHT22;4203;48.144;14.118;2022-07-29T05:36:00;18.50;99.90
8332;DHT22;4203;48.144;14.118;2022-07-29T05:38:28;18.60;99.90
8332;DHT22;4203;48.144;14.118;2022-07-29T05:40:57;18.70;99.90
8332;DHT22;4203;48.144;14.118;2022-07-29T05:43:25;18.80;99.90
8332;DHT22;4203;48.144;14.118;2022-07-29T05:45:52;18.90;99.90
8332;DHT22;4203;48.144;14.118;2022-07-29T05:48:19;19.00;99.90
8332;DHT22;4203;48.144;14.118;2022-07-29T05:50:46;19.10;99.90
8332;DHT22;4203;48.144;14.118;2022-07-29T05:53:15;19.20;99.90
8332;DHT22;4203;48.144;14.118;2022-07-29T05:55:42;19.30;99.90
8332;DHT22;4203;48.144;14.118;2022-07-29T05:58:09;19.40;99.90
8332;DHT22;4203;48.144;14.118;2022-07-29T06:00:37;19.50;99.90
8332;DHT22;4203;48.144;14.118;2022-07-29T06:03:04;19.50;99.90
8332;DHT22;4203;48.144;14.118;2022-07-29T06:05:31;19.60;99.90
8332;DHT22;4203;48.144;14.118;2022-07-29T06:07:58;19.70;99.90
8332;DHT22;4203;48.144;14.118;2022-07-29T06:10:27;19.80;99.90
8332;DHT22;4203;48.144;14.118;2022-07-29T06:12:54;19.90;99.90
8332;DHT22;4203;48.144;14.118;2022-07-29T06:15:22;20.00;99.90
8332;DHT22;4203;48.144;14.118;2022-07-29T06:17:49;20.10;99.90
8332;DHT22;4203;48.144;14.118;2022-07-29T06:20:16;20.20;99.90
8332;DHT22;4203;48.144;14.118;2022-07-29T06:22:43;20.30;99.90
8332;DHT22;4203;48.144;14.118;2022-07-29T06:25:11;20.50;99.90
8332;DHT22;4203;48.144;14.118;2022-07-29T06:27:40;20.60;99.90
8332;DHT22;4203;48.144;14.118;2022-07-29T06:30:08;20.70;99.90
8332;DHT22;4203;48.144;14.118;2022-07-29T06:32:36;20.80;99.90
8332;DHT22;4203;48.144;14.118;2022-07-29T06:35:03;20.80;99.90
8332;DHT22;4203;48.144;14.118;2022-07-29T06:37:31;20.80;99.90
8332;DHT22;4203;48.144;14.118;2022-07-29T06:39:58;20.90;99.90
8332;DHT22;4203;48.144;14.118;2022-07-29T06:42:43;20.90;99.90
8332;DHT22;4203;48.144;14.118;2022-07-29T06:45:11;20.90;99.90
8332;DHT22;4203;48.144;14.118;2022-07-29T06:47:38;20.90;99.90
8332;DHT22;4203;48.144;14.118;2022-07-29T06:50:06;20.80;99.90
8332;DHT22;4203;48.144;14.118;2022-07-29T06:52:37;20.80;99.90
8332;DHT22;4203;48.144;14.118;2022-07-29T06:55:05;20.80;99.90
8332;DHT22;4203;48.144;14.118;2022-07-29T06:57:32;20.70;99.90
8332;DHT22;4203;48.144;14.118;2022-07-29T07:00:01;20.70;99.90
8332;DHT22;4203;48.144;14.118;2022-07-29T07:02:30;20.70;99.90
8332;DHT22;4203;48.144;14.118;2022-07-29T07:04:57;20.70;99.90
8332;DHT22;4203;48.144;14.118;2022-07-29T07:07:25;20.70;99.90
8332;DHT22;4203;48.144;14.118;2022-07-29T07:09:52;20.60;99.90
8332;DHT22;4203;48.144;14.118;2022-07-29T07:12:19;20.60;99.90
8332;DHT22;4203;48.144;14.118;2022-07-29T07:14:46;20.60;99.90
8332;DHT22;4203;48.144;14.118;2022-07-29T07:17:15;20.60;99.90
8332;DHT22;4203;48.144;14.118;2022-07-29T07:19:42;20.60;99.90
8332;DHT22;4203;48.144;14.118;2022-07-29T07:22:10;20.50;99.90
8332;DHT22;4203;48.144;14.118;2022-07-29T07:24:37;20.50;99.90
8332;DHT22;4203;48.144;14.118;2022-07-29T07:27:05;20.50;99.90
8332;DHT22;4203;48.144;14.118;2022-07-29T07:29:32;20.50;99.90
8332;DHT22;4203;48.144;14.118;2022-07-29T07:31:59;20.50;99.90
8332;DHT22;4203;48.144;14.118;2022-07-29T07:34:28;20.60;99.90
8332;DHT22;4203;48.144;14.118;2022-07-29T07:36:56;20.60;99.90
8332;DHT22;4203;48.144;14.118;2022-07-29T07:39:23;20.70;99.90
8332;DHT22;4203;48.144;14.118;2022-07-29T07:41:52;20.80;99.90
8332;DHT22;4203;48.144;14.118;2022-07-29T07:44:19;20.80;99.90
8332;DHT22;4203;48.144;14.118;2022-07-29T07:46:46;20.90;99.90
8332;DHT22;4203;48.144;14.118;2022-07-29T07:49:13;20.90;99.90
8332;DHT22;4203;48.144;14.118;2022-07-29T07:51:42;20.90;99.90
8332;DHT22;4203;48.144;14.118;2022-07-29T07:54:09;21.00;99.90
8332;DHT22;4203;48.144;14.118;2022-07-29T07:56:36;21.00;99.90
8332;DHT22;4203;48.144;14.118;2022-07-29T07:59:03;21.10;99.90
8332;DHT22;4203;48.144;14.118;2022-07-29T08:01:31;21.10;99.90
8332;DHT22;4203;48.144;14.118;2022-07-29T08:03:58;21.10;99.90
8332;DHT22;4203;48.144;14.118;2022-07-29T08:06:25;21.10;99.90
8332;DHT22;4203;48.144;14.118;2022-07-29T08:08:53;21.20;99.90
8332;DHT22;4203;48.144;14.118;2022-07-29T08:11:21;21.20;99.90
8332;DHT22;4203;48.144;14.118;2022-07-29T08:13:48;21.30;99.90
8332;DHT22;4203;48.144;14.118;2022-07-29T08:16:15;21.30;99.90
8332;DHT22;4203;48.144;14.118;2022-07-29T08:18:43;21.40;99.90
8332;DHT22;4203;48.144;14.118;2022-07-29T08:21:11;21.50;99.90
8332;DHT22;4203;48.144;14.118;2022-07-29T08:23:38;21.60;99.90
8332;DHT22;4203;48.144;14.118;2022-07-29T08:26:13;21.70;99.90
8332;DHT22;4203;48.144;14.118;2022-07-29T08:28:42;21.70;99.90
8332;DHT22;4203;48.144;14.118;2022-07-29T08:31:11;21.80;99.90
8332;DHT22;4203;48.144;14.118;2022-07-29T08:33:39;21.80;99.90
8332;DHT22;4203;48.144;14.118;2022-07-29T08:36:07;21.90;99.90
8332;DHT22;4203;48.144;14.118;2022-07-29T08:38:34;22.00;99.90
8332;DHT22;4203;48.144;14.118;2022-07-29T08:41:01;22.10;99.90
8332;DHT22;4203;48.144;14.118;2022-07-29T08:43:30;22.20;99.90
8332;DHT22;4203;48.144;14.118;2022-07-29T08:45:57;22.30;99.90
8332;DHT22;4203;48.144;14.118;2022-07-29T08:48:25;22.40;99.90
8332;DHT22;4203;48.144;14.118;2022-07-29T08:50:55;22.60;99.90
8332;DHT22;4203;48.144;14.118;2022-07-29T08:53:26;22.70;99.90
8332;DHT22;4203;48.144;14.118;2022-07-29T08:55:54;22.80;99.90
8332;DHT22;4203;48.144;14.118;2022-07-29T08:58:22;22.90;99.90
8332;DHT22;4203;48.144;14.118;2022-07-29T09:00:53;23.00;99.90
8332;DHT22;4203;48.144;14.118;2022-07-29T09:03:23;23.00;99.90
8332;DHT22;4203;48.144;14.118;2022-07-29T09:05:51;23.10;99.90
8332;DHT22;4203;48.144;14.118;2022-07-29T09:08:19;23.30;99.90
8332;DHT22;4203;48.144;14.118;2022-07-29T09:10:47;23.40;99.90
8332;DHT22;4203;48.144;14.118;2022-07-29T09:13:14;23.50;99.90
8332;DHT22;4203;48.144;14.118;2022-07-29T09:15:42;23.60;99.90
8332;DHT22;4203;48.144;14.118;2022-07-29T09:18:10;23.90;99.90
8332;DHT22;4203;48.144;14.118;2022-07-29T09:20:38;24.00;99.90
8332;DHT22;4203;48.144;14.118;2022-07-29T09:23:23;24.20;99.90
8332;DHT22;4203;48.144;14.118;2022-07-29T09:25:50;24.30;99.90
8332;DHT22;4203;48.144;14.118;2022-07-29T09:28:17;24.40;99.90
8332;DHT22;4203;48.144;14.118;2022-07-29T09:30:50;24.60;99.90
8332;DHT22;4203;48.144;14.118;2022-07-29T09:33:20;24.70;99.90
8332;DHT22;4203;48.144;14.118;2022-07-29T09:35:59;24.70;99.90
8332;DHT22;4203;48.144;14.118;2022-07-29T09:38:26;24.80;99.90
8332;DHT22;4203;48.144;14.118;2022-07-29T09:40:57;24.90;99.90
8332;DHT22;4203;48.144;14.118;2022-07-29T09:43:24;25.10;99.90
8332;DHT22;4203;48.144;14.118;2022-07-29T09:45:51;25.30;99.90
8332;DHT22;4203;48.144;14.118;2022-07-29T09:48:22;25.40;99.90
8332;DHT22;4203;48.144;14.118;2022-07-29T09:50:50;25.60;99.90
8332;DHT22;4203;48.144;14.118;2022-07-29T09:53:31;25.80;99.90
8332;DHT22;4203;48.144;14.118;2022-07-29T09:55:59;26.00;99.90
8332;DHT22;4203;48.144;14.118;2022-07-29T09:58:27;26.10;99.90
8332;DHT22;4203;48.144;14.118;2022-07-29T10:00:57;26.40;99.90
8332;DHT22;4203;48.144;14.118;2022-07-29T10:03:25;26.80;99.90
8332;DHT22;4203;48.144;14.118;2022-07-29T10:06:07;27.20;99.90
8332;DHT22;4203;48.144;14.118;2022-07-29T10:08:35;28.00;99.90
8332;DHT22;4203;48.144;14.118;2022-07-29T10:11:20;28.30;99.90
8332;DHT22;4203;48.144;14.118;2022-07-29T10:13:48;28.40;99.90
8332;DHT22;4203;48.144;14.118;2022-07-29T10:16:16;28.70;99.90
8332;DHT22;4203;48.144;14.118;2022-07-29T10:18:44;29.20;99.90
8332;DHT22;4203;48.144;14.118;2022-07-29T10:21:13;29.70;99.90
8332;DHT22;4203;48.144;14.118;2022-07-29T10:23:41;30.00;99.90
8332;DHT22;4203;48.144;14.118;2022-07-29T10:26:10;30.20;99.90
8332;DHT22;4203;48.144;14.118;2022-07-29T10:28:37;30.20;99.90
8332;DHT22;4203;48.144;14.118;2022-07-29T10:31:06;30.30;99.90
8332;DHT22;4203;48.144;14.118;2022-07-29T10:33:47;30.40;99.90
8332;DHT22;4203;48.144;14.118;2022-07-29T10:36:38;30.60;99.90
8332;DHT22;4203;48.144;14.118;2022-07-29T10:39:17;30.80;99.90
8332;DHT22;4203;48.144;14.118;2022-07-29T10:41:59;30.80;99.90
8332;DHT22;4203;48.144;14.118;2022-07-29T10:44:29;30.90;99.90
8332;DHT22;4203;48.144;14.118;2022-07-29T10:46:56;30.90;99.90
8332;DHT22;4203;48.144;14.118;2022-07-29T10:49:26;31.00;99.90
8332;DHT22;4203;48.144;14.118;2022-07-29T10:51:57;31.00;99.90
8332;DHT22;4203;48.144;14.118;2022-07-29T10:57:20;31.40;99.90
8332;DHT22;4203;48.144;14.118;2022-07-29T10:59:49;31.30;99.90
8332;DHT22;4203;48.144;14.118;2022-07-29T11:02:41;31.40;99.90
8332;DHT22;4203;48.144;14.118;2022-07-29T11:05:11;31.70;99.90
8332;DHT22;4203;48.144;14.118;2022-07-29T11:10:28;32.10;99.90
8332;DHT22;4203;48.144;14.118;2022-07-29T11:12:55;32.40;99.90
8332;DHT22;4203;48.144;14.118;2022-07-29T11:15:23;32.20;99.90
8332;DHT22;4203;48.144;14.118;2022-07-29T11:18:06;32.20;99.90
8332;DHT22;4203;48.144;14.118;2022-07-29T11:20:37;32.30;99.90
8332;DHT22;4203;48.144;14.118;2022-07-29T11:23:20;32.10;99.90
8332;DHT22;4203;48.144;14.118;2022-07-29T11:26:16;31.90;99.80
8332;DHT22;4203;48.144;14.118;2022-07-29T11:28:54;32.00;99.90
8332;DHT22;4203;48.144;14.118;2022-07-29T11:31:38;32.20;99.90
8332;DHT22;4203;48.144;14.118;2022-07-29T11:34:23;32.30;99.90
8332;DHT22;4203;48.144;14.118;2022-07-29T11:37:17;32.40;99.90
8332;DHT22;4203;48.144;14.118;2022-07-29T11:39:46;32.50;99.90
8332;DHT22;4203;48.144;14.118;2022-07-29T11:42:41;32.60;99.90
8332;DHT22;4203;48.144;14.118;2022-07-29T11:45:11;32.80;99.90
8332;DHT22;4203;48.144;14.118;2022-07-29T11:47:41;32.90;99.90
8332;DHT22;4203;48.144;14.118;2022-07-29T11:50:10;33.20;99.90
8332;DHT22;4203;48.144;14.118;2022-07-29T11:52:41;33.60;99.90
8332;DHT22;4203;48.144;14.118;2022-07-29T11:55:15;33.90;99.90
8332;DHT22;4203;48.144;14.118;2022-07-29T11:57:47;34.00;98.70
8332;DHT22;4203;48.144;14.118;2022-07-29T12:00:26;34.10;99.90
8332;DHT22;4203;48.144;14.118;2022-07-29T12:02:54;34.00;98.60
8332;DHT22;4203;48.144;14.118;2022-07-29T12:05:34;34.10;99.90
8332;DHT22;4203;48.144;14.118;2022-07-29T12:08:11;34.20;99.90
8332;DHT22;4203;48.144;14.118;2022-07-29T12:10:41;34.20;97.10
8332;DHT22;4203;48.144;14.118;2022-07-29T12:13:09;33.90;96.00
8332;DHT22;4203;48.144;14.118;2022-07-29T12:15:36;33.70;99.90
8332;DHT22;4203;48.144;14.118;2022-07-29T12:18:14;33.80;99.90
8332;DHT22;4203;48.144;14.118;2022-07-29T12:20:42;33.90;98.90
8332;DHT22;4203;48.144;14.118;2022-07-29T12:23:11;34.00;99.20
8332;DHT22;4203;48.144;14.118;2022-07-29T12:25:40;34.10;99.90
8332;DHT22;4203;48.144;14.118;2022-07-29T12:28:09;34.40;99.90
8332;DHT22;4203;48.144;14.118;2022-07-29T12:30:42;34.60;96.90
8332;DHT22;4203;48.144;14.118;2022-07-29T12:33:12;34.70;96.00
8332;DHT22;4203;48.144;14.118;2022-07-29T12:35:40;34.90;99.10
8332;DHT22;4203;48.144;14.118;2022-07-29T12:38:11;34.90;95.70
8332;DHT22;4203;48.144;14.118;2022-07-29T12:40:39;34.70;97.00
8332;DHT22;4203;48.144;14.118;2022-07-29T12:43:08;34.50;98.00
8332;DHT22;4203;48.144;14.118;2022-07-29T12:45:36;34.40;94.20
8332;DHT22;4203;48.144;14.118;2022-07-29T12:48:05;34.40;94.90
8332;DHT22;4203;48.144;14.118;2022-07-29T12:50:34;34.40;93.70
8332;DHT22;4203;48.144;14.118;2022-07-29T12:53:12;34.10;96.10
8332;DHT22;4203;48.144;14.118;2022-07-29T12:55:44;34.00;96.90
8332;DHT22;4203;48.144;14.118;2022-07-29T12:58:26;34.10;98.90
8332;DHT22;4203;48.144;14.118;2022-07-29T13:01:08;34.30;95.20
8332;DHT22;4203;48.144;14.118;2022-07-29T13:03:44;34.00;95.60
8332;DHT22;4203;48.144;14.118;2022-07-29T13:06:41;33.70;99.90
8332;DHT22;4203;48.144;14.118;2022-07-29T13:09:12;33.70;99.00
8332;DHT22;4203;48.144;14.118;2022-07-29T13:11:41;33.80;96.10
8332;DHT22;4203;48.144;14.118;2022-07-29T13:14:11;33.80;97.50
8332;DHT22;4203;48.144;14.118;2022-07-29T13:17:00;33.80;99.30
8332;DHT22;4203;48.144;14.118;2022-07-29T13:19:36;33.80;97.60
8332;DHT22;4203;48.144;14.118;2022-07-29T13:22:04;34.10;96.10
8332;DHT22;4203;48.144;14.118;2022-07-29T13:24:33;34.20;94.80
8332;DHT22;4203;48.144;14.118;2022-07-29T13:27:00;34.20;93.60
8332;DHT22;4203;48.144;14.118;2022-07-29T13:29:27;34.00;94.70
8332;DHT22;4203;48.144;14.118;2022-07-29T13:31:55;33.80;94.80
8332;DHT22;4203;48.144;14.118;2022-07-29T13:34:22;33.50;92.60
8332;DHT22;4203;48.144;14.118;2022-07-29T13:36:49;33.00;93.20
8332;DHT22;4203;48.144;14.118;2022-07-29T13:39:17;32.60;96.30
8332;DHT22;4203;48.144;14.118;2022-07-29T13:41:46;32.20;96.50
8332;DHT22;4203;48.144;14.118;2022-07-29T13:44:13;32.10;96.50
8332;DHT22;4203;48.144;14.118;2022-07-29T13:46:40;32.00;95.40
8332;DHT22;4203;48.144;14.118;2022-07-29T13:49:07;32.10;95.00
8332;DHT22;4203;48.144;14.118;2022-07-29T13:51:35;32.00;92.80
8332;DHT22;4203;48.144;14.118;2022-07-29T13:54:02;32.00;95.90
8332;DHT22;4203;48.144;14.118;2022-07-29T13:56:29;32.20;97.50
8332;DHT22;4203;48.144;14.118;2022-07-29T13:58:58;32.30;92.60
8332;DHT22;4203;48.144;14.118;2022-07-29T14:01:26;32.30;94.60
8332;DHT22;4203;48.144;14.118;2022-07-29T14:03:53;32.40;97.80
8332;DHT22;4203;48.144;14.118;2022-07-29T14:06:20;32.60;94.20
8332;DHT22;4203;48.144;14.118;2022-07-29T14:08:47;32.70;95.30
8332;DHT22;4203;48.144;14.118;2022-07-29T14:11:15;32.70;95.40
8332;DHT22;4203;48.144;14.118;2022-07-29T14:13:42;32.70;94.40
8332;DHT22;4203;48.144;14.118;2022-07-29T14:16:10;32.70;95.90
8332;DHT22;4203;48.144;14.118;2022-07-29T14:18:38;32.70;95.60
8332;DHT22;4203;48.144;14.118;2022-07-29T14:21:05;32.50;94.00
8332;DHT22;4203;48.144;14.118;2022-07-29T14:23:32;32.30;93.90
8332;DHT22;4203;48.144;14.118;2022-07-29T14:25:59;32.00;94.40
8332;DHT22;4203;48.144;14.118;2022-07-29T14:28:27;31.60;94.20
8332;DHT22;4203;48.144;14.118;2022-07-29T14:30:54;31.40;94.60
8332;DHT22;4203;48.144;14.118;2022-07-29T14:33:22;31.40;96.20
8332;DHT22;4203;48.144;14.118;2022-07-29T14:35:50;31.50;97.40
8332;DHT22;4203;48.144;14.118;2022-07-29T14:38:17;31.50;96.30
8332;DHT22;4203;48.144;14.118;2022-07-29T14:40:44;31.70;95.50
8332;DHT22;4203;48.144;14.118;2022-07-29T14:43:12;31.60;96.60
8332;DHT22;4203;48.144;14.118;2022-07-29T14:45:39;31.50;96.60
8332;DHT22;4203;48.144;14.118;2022-07-29T14:48:07;31.50;97.00
8332;DHT22;4203;48.144;14.118;2022-07-29T14:50:35;31.50;94.30
8332;DHT22;4203;48.144;14.118;2022-07-29T14:53:03;31.30;93.40
8332;DHT22;4203;48.144;14.118;2022-07-29T14:55:30;31.20;95.30
8332;DHT22;4203;48.144;14.118;2022-07-29T14:57:58;31.20;92.60
8332;DHT22;4203;48.144;14.118;2022-07-29T15:00:26;31.00;95.20
8332;DHT22;4203;48.144;14.118;2022-07-29T15:02:53;30.90;94.50
8332;DHT22;4203;48.144;14.118;2022-07-29T15:05:20;30.90;94.80
8332;DHT22;4203;48.144;14.118;2022-07-29T15:07:49;30.70;96.20
8332;DHT22;4203;48.144;14.118;2022-07-29T15:10:16;30.70;95.60
8332;DHT22;4203;48.144;14.118;2022-07-29T15:12:43;30.70;94.50
8332;DHT22;4203;48.144;14.118;2022-07-29T15:15:10;30.70;96.30
8332;DHT22;4203;48.144;14.118;2022-07-29T15:17:38;30.60;95.40
8332;DHT22;4203;48.144;14.118;2022-07-29T15:20:06;30.30;92.70
8332;DHT22;4203;48.144;14.118;2022-07-29T15:22:33;30.20;95.60
8332;DHT22;4203;48.144;14.118;2022-07-29T15:25:02;30.20;96.20
8332;DHT22;4203;48.144;14.118;2022-07-29T15:27:29;30.30;96.10
8332;DHT22;4203;48.144;14.118;2022-07-29T15:29:56;30.20;94.10
8332;DHT22;4203;48.144;14.118;2022-07-29T15:32:23;30.10;95.90
8332;DHT22;4203;48.144;14.118;2022-07-29T15:34:51;30.10;95.40
8332;DHT22;4203;48.144;14.118;2022-07-29T15:37:18;30.10;94.10
8332;DHT22;4203;48.144;14.118;2022-07-29T15:39:45;30.00;95.80
8332;DHT22;4203;48.144;14.118;2022-07-29T15:42:14;29.90;96.00
8332;DHT22;4203;48.144;14.118;2022-07-29T15:44:41;29.90;95.90
8332;DHT22;4203;48.144;14.118;2022-07-29T15:47:08;29.80;94.50
8332;DHT22;4203;48.144;14.118;2022-07-29T15:49:36;29.70;94.40
8332;DHT22;4203;48.144;14.118;2022-07-29T15:52:05;29.70;96.90
8332;DHT22;4203;48.144;14.118;2022-07-29T15:54:33;29.70;96.30
8332;DHT22;4203;48.144;14.118;2022-07-29T15:57:02;29.60;93.90
8332;DHT22;4203;48.144;14.118;2022-07-29T15:59:31;29.40;94.60
8332;DHT22;4203;48.144;14.118;2022-07-29T16:01:59;29.20;94.80
8332;DHT22;4203;48.144;14.118;2022-07-29T16:04:26;29.10;94.90
8332;DHT22;4203;48.144;14.118;2022-07-29T16:06:54;29.00;95.00